createdAt,value
2022-08-23T00:02:05.470Z,6.32
2022-08-23T00:04:39.746Z,6.80
2022-08-23T00:07:23.788Z,7.35
2022-08-23T00:09:51.258Z,6.85
2022-08-23T00:12:21.195Z,7.28
2022-08-23T00:14:51.267Z,5.65
2022-08-23T00:17:25.613Z,6.37
2022-08-23T00:20:07.245Z,7.00
2022-08-23T00:27:37.067Z,8.13
2022-08-23T00:30:07.159Z,6.40
2022-08-23T00:32:37.289Z,7.22
2022-08-23T00:35:06.107Z,6.47
2022-08-23T00:37:33.687Z,7.72
2022-08-23T00:40:00.983Z,7.05
2022-08-23T00:42:30.705Z,5.53
2022-08-23T00:45:01.139Z,6.28
2022-08-23T00:47:28.048Z,6.75
2022-08-23T00:50:05.726Z,5.70
2022-08-23T00:53:04.716Z,8.35
2022-08-23T00:55:32.801Z,7.17
2022-08-23T00:58:00.278Z,7.22
2022-08-23T01:00:28.075Z,7.07
2022-08-23T01:02:55.595Z,7.85
2022-08-23T01:05:28.406Z,6.63
2022-08-23T01:07:58.913Z,7.23
2022-08-23T01:10:32.693Z,6.13
2022-08-23T01:13:07.843Z,6.95
2022-08-23T01:15:42.085Z,5.50
2022-08-23T01:18:11.613Z,6.38
2022-08-23T01:21:10.303Z,6.80
2022-08-23T01:23:55.500Z,6.57
2022-08-23T01:26:24.096Z,5.65
2022-08-23T01:28:53.213Z,6.50
2022-08-23T01:31:22.449Z,6.10
2022-08-23T01:33:57.093Z,5.90
2022-08-23T01:36:24.342Z,7.20
2022-08-23T01:38:51.204Z,7.32
2022-08-23T01:41:18.227Z,7.03
2022-08-23T01:43:45.490Z,6.95
2022-08-23T01:46:18.083Z,6.63
2022-08-23T01:48:47.509Z,7.25
2022-08-23T01:51:16.058Z,7.80
2022-08-23T01:53:43.448Z,7.25
2022-08-23T01:56:10.732Z,6.20
2022-08-23T01:58:37.706Z,7.77
2022-08-23T02:01:05.116Z,7.68
2022-08-23T02:03:33.643Z,7.50
2022-08-23T02:06:01.046Z,7.03
2022-08-23T02:08:27.926Z,7.68
2022-08-23T02:10:55.316Z,7.10
2022-08-23T02:13:22.594Z,8.30
2022-08-23T02:15:50.764Z,8.35
2022-08-23T02:18:19.875Z,5.43
2022-08-23T02:20:49.090Z,6.82
2022-08-23T02:23:16.019Z,6.77
2022-08-23T02:25:42.873Z,7.07
2022-08-23T02:28:10.240Z,7.30
2022-08-23T02:30:37.108Z,7.57
2022-08-23T02:33:05.007Z,6.97
2022-08-23T02:35:33.509Z,8.17
2022-08-23T02:38:08.351Z,9.30
2022-08-23T02:40:35.977Z,8.32
2022-08-23T02:43:03.974Z,6.75
2022-08-23T02:45:30.906Z,6.75
2022-08-23T02:47:57.801Z,9.20
2022-08-23T02:50:25.824Z,7.30
2022-08-23T02:52:53.946Z,6.95
2022-08-23T02:55:21.357Z,8.93
2022-08-23T02:57:48.201Z,8.95
2022-08-23T03:00:17.928Z,8.13
2022-08-23T03:02:44.987Z,8.07
2022-08-23T03:05:13.545Z,7.50
2022-08-23T03:07:41.510Z,10.38
2022-08-23T03:10:09.228Z,7.45
2022-08-23T03:12:36.400Z,7.23
2022-08-23T03:15:05.724Z,6.55
2022-08-23T03:17:32.690Z,6.55
2022-08-23T03:19:59.658Z,8.55
2022-08-23T03:22:26.724Z,8.18
2022-08-23T03:24:53.689Z,8.10
2022-08-23T03:27:20.635Z,7.32
2022-08-23T03:29:47.551Z,8.27
2022-08-23T03:32:15.561Z,6.60
2022-08-23T03:34:42.700Z,9.32
2022-08-23T03:37:09.654Z,7.47
2022-08-23T03:39:37.014Z,8.48
2022-08-23T03:42:04.366Z,9.15
2022-08-23T03:44:31.330Z,6.10
2022-08-23T03:46:58.222Z,8.25
2022-08-23T03:49:25.301Z,6.47
2022-08-23T03:51:52.300Z,5.35
2022-08-23T03:54:19.307Z,7.25
2022-08-23T03:56:59.209Z,6.90
2022-08-23T03:59:27.641Z,8.05
2022-08-23T04:01:54.846Z,6.13
2022-08-23T04:04:22.270Z,6.72
2022-08-23T04:06:49.388Z,6.97
2022-08-23T04:09:17.445Z,6.50
2022-08-23T04:11:44.933Z,7.43
2022-08-23T04:14:12.030Z,6.73
2022-08-23T04:16:39.514Z,7.63
2022-08-23T04:19:12.083Z,9.18
2022-08-23T04:21:42.692Z,7.82
2022-08-23T04:24:09.696Z,6.00
2022-08-23T04:26:36.616Z,8.63
2022-08-23T04:29:03.741Z,7.38
2022-08-23T04:31:34.483Z,6.20
2022-08-23T04:34:02.301Z,6.60
2022-08-23T04:36:35.885Z,6.78
2022-08-23T04:39:03.673Z,6.13
2022-08-23T04:41:30.580Z,6.07
2022-08-23T04:43:57.563Z,7.90
2022-08-23T04:46:24.773Z,6.07
2022-08-23T04:48:51.815Z,5.90
2022-08-23T04:51:18.973Z,6.97
2022-08-23T04:53:46.397Z,7.20
2022-08-23T04:56:13.199Z,7.32
2022-08-23T04:58:40.243Z,9.05
2022-08-23T05:01:09.809Z,6.22
2022-08-23T05:03:37.269Z,9.80
2022-08-23T05:06:05.206Z,8.93
2022-08-23T05:08:32.982Z,7.50
2022-08-23T05:11:05.510Z,7.78
2022-08-23T05:13:34.869Z,13.27
2022-08-23T05:16:02.172Z,10.77
2022-08-23T05:18:29.065Z,6.80
2022-08-23T05:20:56.438Z,6.32
2022-08-23T05:23:25.948Z,6.45
2022-08-23T05:25:59.503Z,8.20
2022-08-23T05:28:29.732Z,7.93
2022-08-23T05:31:02.147Z,5.68
2022-08-23T05:33:31.520Z,7.85
2022-08-23T05:35:59.124Z,7.13
2022-08-23T05:38:26.755Z,6.45
2022-08-23T05:40:56.801Z,7.27
2022-08-23T05:43:26.852Z,6.13
2022-08-23T05:46:14.265Z,9.35
2022-08-23T05:48:46.221Z,8.43
2022-08-23T05:51:18.295Z,7.28
2022-08-23T05:53:46.604Z,7.03
2022-08-23T05:56:23.678Z,7.10
2022-08-23T05:58:59.169Z,5.68
2022-08-23T06:01:28.664Z,7.53
2022-08-23T06:03:55.620Z,8.02
2022-08-23T06:06:22.520Z,6.73
2022-08-23T06:09:03.990Z,5.78
2022-08-23T06:11:30.946Z,8.98
2022-08-23T06:14:00.506Z,8.43
2022-08-23T06:16:30.637Z,7.60
2022-08-23T06:18:58.266Z,6.10
2022-08-23T06:21:26.084Z,9.05
2022-08-23T06:23:53.425Z,7.30
2022-08-23T06:26:25.197Z,8.07
2022-08-23T06:28:56.850Z,9.48
2022-08-23T06:31:25.654Z,5.80
2022-08-23T06:33:55.943Z,7.93
2022-08-23T06:36:25.443Z,7.22
2022-08-23T06:38:52.306Z,6.05
2022-08-23T06:41:19.201Z,5.43
2022-08-23T06:43:48.931Z,5.77
2022-08-23T06:46:25.923Z,6.18
2022-08-23T06:48:57.476Z,5.55
2022-08-23T06:51:30.134Z,8.27
2022-08-23T06:54:03.005Z,8.68
2022-08-23T06:56:30.855Z,5.70
2022-08-23T06:58:58.050Z,11.43
2022-08-23T07:01:48.482Z,6.65
2022-08-23T07:04:19.013Z,7.57
2022-08-23T07:06:46.415Z,7.10
2022-08-23T07:09:13.369Z,9.57
2022-08-23T07:11:40.275Z,6.57
2022-08-23T07:14:11.468Z,7.75
2022-08-23T07:16:42.864Z,6.95
2022-08-23T07:19:09.805Z,6.97
2022-08-23T07:21:38.131Z,7.73
2022-08-23T07:24:05.957Z,5.68
2022-08-23T07:26:33.554Z,6.05
2022-08-23T07:29:00.645Z,8.32
2022-08-23T07:31:31.124Z,7.65
2022-08-23T07:34:00.323Z,7.73
2022-08-23T07:36:29.392Z,9.82
2022-08-23T07:38:57.095Z,8.40
2022-08-23T07:41:26.687Z,9.52
2022-08-23T07:43:53.806Z,7.75
2022-08-23T07:46:20.884Z,9.17
2022-08-23T07:48:54.390Z,15.25
2022-08-23T07:51:21.983Z,7.38
2022-08-23T07:53:48.831Z,10.38
2022-08-23T07:56:17.349Z,7.63
2022-08-23T07:58:44.421Z,10.87
2022-08-23T08:01:16.916Z,9.85
2022-08-23T08:03:45.900Z,13.05
2022-08-23T08:06:19.115Z,18.08
2022-08-23T08:08:46.578Z,11.90
2022-08-23T08:11:15.133Z,10.70
2022-08-23T08:13:44.547Z,12.27
2022-08-23T08:16:24.288Z,13.05
2022-08-23T08:18:51.370Z,12.40
2022-08-23T08:21:19.042Z,15.88
2022-08-23T08:23:46.742Z,12.10
2022-08-23T08:26:13.947Z,11.95
2022-08-23T08:28:41.580Z,13.55
2022-08-23T08:31:10.134Z,14.20
2022-08-23T08:33:37.385Z,10.52
2022-08-23T08:36:05.384Z,11.63
2022-08-23T08:38:32.922Z,16.90
2022-08-23T08:41:09.690Z,12.38
2022-08-23T08:44:01.470Z,14.88
2022-08-23T08:46:50.694Z,15.60
2022-08-23T08:49:57.876Z,10.57
2022-08-23T08:52:32.342Z,11.75
2022-08-23T08:55:17.406Z,17.50
2022-08-23T08:57:46.276Z,13.25
2022-08-23T09:00:16.021Z,11.98
2022-08-23T09:02:43.283Z,9.87
2022-08-23T09:05:18.738Z,8.70
2022-08-23T09:08:01.883Z,8.80
2022-08-23T09:10:38.016Z,11.55
2022-08-23T09:13:14.139Z,14.30
2022-08-23T09:15:56.666Z,10.77
2022-08-23T09:18:24.170Z,9.93
2022-08-23T09:20:54.240Z,11.27
2022-08-23T09:23:26.330Z,13.13
2022-08-23T09:26:03.066Z,12.48
2022-08-23T09:28:33.973Z,10.40
2022-08-23T09:31:01.122Z,12.35
2022-08-23T09:33:40.966Z,9.02
2022-08-23T09:36:16.370Z,10.52
2022-08-23T09:39:00.758Z,9.98
2022-08-23T09:41:39.725Z,13.30
2022-08-23T09:44:09.957Z,11.00
2022-08-23T09:46:38.369Z,9.55
2022-08-23T09:49:25.665Z,10.82
2022-08-23T09:51:54.921Z,10.00
2022-08-23T09:54:34.443Z,10.00
2022-08-23T09:57:04.359Z,11.25
2022-08-23T09:59:45.562Z,9.40
2022-08-23T10:02:34.959Z,9.40
2022-08-23T10:05:07.329Z,10.88
2022-08-23T10:07:42.942Z,11.13
2022-08-23T10:10:27.901Z,10.32
2022-08-23T10:12:56.558Z,10.00
2022-08-23T10:15:51.979Z,8.30
2022-08-23T10:18:41.353Z,13.45
2022-08-23T10:21:18.988Z,7.43
2022-08-23T10:23:56.729Z,7.93
2022-08-23T10:26:34.724Z,9.93
2022-08-23T10:29:08.245Z,8.50
2022-08-23T10:31:41.451Z,9.73
2022-08-23T10:34:38.982Z,8.47
2022-08-23T10:37:43.509Z,9.70
2022-08-23T10:41:14.634Z,11.20
2022-08-23T10:44:18.348Z,8.38
2022-08-23T10:47:22.068Z,10.52
2022-08-23T10:49:52.630Z,14.80
2022-08-23T10:52:27.155Z,10.45
2022-08-23T10:54:59.198Z,10.23
2022-08-23T10:57:33.906Z,7.07
2022-08-23T11:00:05.029Z,8.45
2022-08-23T11:02:40.420Z,9.80
2022-08-23T11:05:29.480Z,7.72
2022-08-23T11:08:11.443Z,10.20
2022-08-23T11:10:38.332Z,7.55
2022-08-23T11:13:11.123Z,8.68
2022-08-23T11:16:05.334Z,10.57
2022-08-23T11:18:39.953Z,7.70
2022-08-23T11:21:27.052Z,8.07
2022-08-23T11:24:14.858Z,12.27
2022-08-23T11:26:44.692Z,10.95
2022-08-23T11:29:11.538Z,10.63
2022-08-23T11:31:43.570Z,8.65
2022-08-23T11:34:25.823Z,6.82
2022-08-23T11:37:21.590Z,8.48
2022-08-23T11:40:00.544Z,9.52
2022-08-23T11:42:30.483Z,7.73
2022-08-23T11:44:57.861Z,10.35
2022-08-23T11:47:38.913Z,7.95
2022-08-23T11:50:33.846Z,9.25
2022-08-23T11:53:09.863Z,10.20
2022-08-23T11:55:53.644Z,8.27
2022-08-23T11:58:28.151Z,9.10
2022-08-23T12:00:55.055Z,21.63
2022-08-23T12:03:34.913Z,7.93
2022-08-23T12:06:12.611Z,11.07
2022-08-23T12:08:48.720Z,8.93
2022-08-23T12:11:20.049Z,8.88
2022-08-23T12:13:58.357Z,10.60
2022-08-23T12:16:25.272Z,8.90
2022-08-23T12:19:00.404Z,11.65
2022-08-23T12:21:34.514Z,9.40
2022-08-23T12:24:13.732Z,10.95
2022-08-23T12:27:12.665Z,9.32
2022-08-23T12:30:06.784Z,8.10
2022-08-23T12:32:36.645Z,10.15
2022-08-23T12:35:28.900Z,10.40
2022-08-23T12:38:01.657Z,9.05
2022-08-23T12:40:32.757Z,18.08
2022-08-23T12:43:08.036Z,11.80
2022-08-23T12:45:41.786Z,10.93
2022-08-23T12:48:11.770Z,13.73
2022-08-23T12:50:42.911Z,8.02
2022-08-23T12:53:14.276Z,9.63
2022-08-23T12:55:51.325Z,9.95
2022-08-23T12:58:31.777Z,7.47
2022-08-23T13:01:05.675Z,9.67
2022-08-23T13:03:39.764Z,8.75
2022-08-23T13:06:13.504Z,9.77
2022-08-23T13:09:12.684Z,5.97
2022-08-23T13:11:40.563Z,8.57
2022-08-23T13:14:25.628Z,10.03
2022-08-23T13:16:53.587Z,9.07
2022-08-23T13:19:29.868Z,7.95
2022-08-23T13:22:19.941Z,9.10
2022-08-23T13:27:59.077Z,11.87
2022-08-23T13:30:33.021Z,8.52
2022-08-23T13:33:08.887Z,12.77
2022-08-23T13:35:42.388Z,7.75
2022-08-23T13:38:20.507Z,10.65
2022-08-23T13:41:07.677Z,10.27
2022-08-23T13:43:49.840Z,7.13
2022-08-23T13:46:29.763Z,9.27
2022-08-23T13:49:04.806Z,8.75
2022-08-23T13:51:31.627Z,8.55
2022-08-23T13:54:02.274Z,7.27
2022-08-23T13:56:31.332Z,7.57
2022-08-23T13:59:16.959Z,8.60
2022-08-23T14:01:43.986Z,6.43
2022-08-23T14:04:10.905Z,10.15
2022-08-23T14:06:37.762Z,9.33
2022-08-23T14:09:04.893Z,9.40
2022-08-23T14:11:32.271Z,12.27
2022-08-23T14:13:59.641Z,8.45
2022-08-23T14:16:33.623Z,15.73
2022-08-23T14:19:54.662Z,9.00
2022-08-23T14:21:49.745Z,8.50
2022-08-23T14:24:18.808Z,9.85
2022-08-23T14:26:50.151Z,9.23
2022-08-23T14:29:18.609Z,12.25
2022-08-23T14:31:48.538Z,8.33
2022-08-23T14:34:15.520Z,11.45
2022-08-23T14:37:21.543Z,9.20
2022-08-23T14:39:29.571Z,10.48
2022-08-23T14:41:56.853Z,8.95
2022-08-23T14:44:23.714Z,9.17
2022-08-23T14:46:50.605Z,6.93
2022-08-23T14:49:17.828Z,10.65
2022-08-23T14:51:46.468Z,12.50
2022-08-23T14:54:25.505Z,10.20
2022-08-23T14:56:53.336Z,7.47
2022-08-23T14:59:20.535Z,12.88
2022-08-23T15:01:49.411Z,11.95
2022-08-23T15:04:19.659Z,10.20
2022-08-23T15:07:14.061Z,10.70
2022-08-23T15:09:34.133Z,11.40
2022-08-23T15:14:48.526Z,7.63
2022-08-23T15:17:15.624Z,10.32
2022-08-23T15:19:42.530Z,12.65
2022-08-23T15:22:18.811Z,11.70
2022-08-23T15:24:49.247Z,9.90
2022-08-23T15:27:16.879Z,13.55
2022-08-23T15:29:43.786Z,11.25
2022-08-23T15:32:12.742Z,10.57
2022-08-23T15:34:45.706Z,14.00
2022-08-23T15:37:14.243Z,7.70
2022-08-23T15:39:42.317Z,12.13
2022-08-23T15:42:09.446Z,11.80
2022-08-23T15:44:36.428Z,9.98
2022-08-23T15:47:09.755Z,9.47
2022-08-23T15:49:36.744Z,14.27
2022-08-23T15:52:04.842Z,9.50
2022-08-23T15:54:32.304Z,15.15
2022-08-23T15:56:59.298Z,12.68
2022-08-23T15:59:26.378Z,11.33
2022-08-23T16:01:53.673Z,18.05
2022-08-23T16:04:20.510Z,10.88
2022-08-23T16:06:47.730Z,25.95
2022-08-23T16:09:21.386Z,12.40
2022-08-23T16:11:49.067Z,11.47
2022-08-23T16:14:16.533Z,12.90
2022-08-23T16:16:44.455Z,11.02
2022-08-23T16:19:11.395Z,15.07
2022-08-23T16:21:38.714Z,9.98
2022-08-23T16:24:06.877Z,13.10
2022-08-23T16:26:37.095Z,10.50
2022-08-23T16:29:09.101Z,13.68
2022-08-23T16:31:38.963Z,11.30
2022-08-23T16:34:09.339Z,12.10
2022-08-23T16:36:36.849Z,16.90
2022-08-23T16:39:05.263Z,16.95
2022-08-23T16:41:35.401Z,13.55
2022-08-23T16:44:02.355Z,10.13
2022-08-23T16:46:29.169Z,12.38
2022-08-23T16:48:56.328Z,16.10
2022-08-23T16:51:23.697Z,11.82
2022-08-23T16:54:01.488Z,11.77
2022-08-23T16:56:31.864Z,7.72
2022-08-23T16:58:59.177Z,11.35
2022-08-23T17:01:26.736Z,10.57
2022-08-23T17:03:54.058Z,8.68
2022-08-23T17:06:21.154Z,8.73
2022-08-23T17:08:48.004Z,10.30
2022-08-23T17:11:18.930Z,9.98
2022-08-23T17:13:46.358Z,10.73
2022-08-23T17:16:13.328Z,8.32
2022-08-23T17:18:40.803Z,9.23
2022-08-23T17:21:08.622Z,11.85
2022-08-23T17:23:40.450Z,8.07
2022-08-23T17:26:09.081Z,10.03
2022-08-23T17:28:36.398Z,9.52
2022-08-23T17:31:04.262Z,10.13
2022-08-23T17:33:31.193Z,7.78
2022-08-23T17:35:58.160Z,9.40
2022-08-23T17:38:25.046Z,7.43
2022-08-23T17:40:52.370Z,7.70
2022-08-23T17:43:19.258Z,9.63
2022-08-23T17:45:49.949Z,13.25
2022-08-23T17:48:19.679Z,13.07
2022-08-23T17:50:47.652Z,11.57
2022-08-23T17:53:15.791Z,12.27
2022-08-23T17:55:43.614Z,13.70
2022-08-23T17:58:11.269Z,12.65
2022-08-23T18:00:39.688Z,11.13
2022-08-23T18:03:07.175Z,10.47
2022-08-23T18:05:36.772Z,8.73
2022-08-23T18:08:03.774Z,7.68
2022-08-23T18:10:30.890Z,8.13
2022-08-23T18:12:58.047Z,9.38
2022-08-23T18:15:26.121Z,8.23
2022-08-23T18:17:56.383Z,11.18
2022-08-23T18:20:27.086Z,12.88
2022-08-23T18:22:58.238Z,9.90
2022-08-23T18:25:26.113Z,11.27
2022-08-23T18:27:53.190Z,12.47
2022-08-23T18:30:20.854Z,11.18
2022-08-23T18:32:47.715Z,14.10
2022-08-23T18:35:14.689Z,11.40
2022-08-23T18:37:41.731Z,12.23
2022-08-23T18:40:10.163Z,11.03
2022-08-23T18:42:38.560Z,11.35
2022-08-23T18:45:06.360Z,11.18
2022-08-23T18:47:33.700Z,12.48
2022-08-23T18:50:00.733Z,11.50
2022-08-23T18:52:31.070Z,11.33
2022-08-23T18:54:58.698Z,12.18
2022-08-23T18:57:25.712Z,12.18
2022-08-23T18:59:52.752Z,13.00
2022-08-23T19:02:19.779Z,12.20
2022-08-23T19:04:46.755Z,10.90
2022-08-23T19:07:13.721Z,12.57
2022-08-23T19:09:40.643Z,12.98
2022-08-23T19:12:08.213Z,10.05
2022-08-23T19:14:35.169Z,11.75
2022-08-23T19:17:06.105Z,13.33
2022-08-23T19:19:33.018Z,16.33
2022-08-23T19:22:00.337Z,19.48
2022-08-23T19:24:27.518Z,11.90
2022-08-23T19:26:54.481Z,10.18
2022-08-23T19:29:21.856Z,10.87
2022-08-23T19:31:49.441Z,11.05
2022-08-23T19:34:19.258Z,12.55
2022-08-23T19:36:52.944Z,12.32
2022-08-23T19:39:27.695Z,16.05
2022-08-23T19:41:54.613Z,12.33
2022-08-23T19:44:21.545Z,13.68
2022-08-23T19:46:48.561Z,13.27
2022-08-23T19:49:16.049Z,12.45
2022-08-23T19:51:44.198Z,12.70
2022-08-23T19:54:12.024Z,10.97
2022-08-23T19:56:45.955Z,9.30
2022-08-23T19:59:16.827Z,10.98
2022-08-23T20:01:43.729Z,13.32
2022-08-23T20:04:10.843Z,12.43
2022-08-23T20:06:37.717Z,10.03
2022-08-23T20:09:06.252Z,12.82
2022-08-23T20:11:33.531Z,11.05
2022-08-23T20:14:01.136Z,12.38
2022-08-23T20:16:29.323Z,11.63
2022-08-23T20:18:56.677Z,9.90
2022-08-23T20:21:24.130Z,11.07
2022-08-23T20:23:52.653Z,12.02
2022-08-23T20:26:19.735Z,10.13
2022-08-23T20:28:59.068Z,13.13
2022-08-23T20:31:32.706Z,11.67
2022-08-23T20:34:00.519Z,10.95
2022-08-23T20:36:27.897Z,15.10
2022-08-23T20:38:59.445Z,12.35
2022-08-23T20:41:33.277Z,10.27
2022-08-23T20:44:00.950Z,10.33
2022-08-23T20:46:28.672Z,13.18
2022-08-23T20:48:56.056Z,9.65
2022-08-23T20:51:23.868Z,12.23
2022-08-23T20:53:50.824Z,13.02
2022-08-23T20:56:18.069Z,11.83
2022-08-23T20:58:47.732Z,13.80
2022-08-23T21:01:14.881Z,12.45
2022-08-23T21:03:41.877Z,22.55
2022-08-23T21:06:21.860Z,11.77
2022-08-23T21:08:53.676Z,12.30
2022-08-23T21:11:21.767Z,13.32
2022-08-23T21:13:48.980Z,11.07
2022-08-23T21:16:17.253Z,10.27
2022-08-23T21:18:44.396Z,13.93
2022-08-23T21:21:11.539Z,12.90
2022-08-23T21:23:39.146Z,11.90
2022-08-23T21:26:07.310Z,14.40
2022-08-23T21:28:35.231Z,15.73
2022-08-23T21:31:17.884Z,13.30
2022-08-23T21:33:45.791Z,14.13
2022-08-23T21:36:14.203Z,13.93
2022-08-23T21:38:41.682Z,12.68
2022-08-23T21:41:12.004Z,12.82
2022-08-23T21:43:39.607Z,17.25
2022-08-23T21:46:07.041Z,12.27
2022-08-23T21:48:34.034Z,14.88
2022-08-23T21:51:01.249Z,15.55
2022-08-23T21:53:28.143Z,14.93
2022-08-23T21:55:55.036Z,13.40
2022-08-23T21:58:21.987Z,12.20
2022-08-23T22:00:49.061Z,13.40
2022-08-23T22:03:15.974Z,13.80
2022-08-23T22:05:44.557Z,16.77
2022-08-23T22:08:14.173Z,17.75
2022-08-23T22:10:44.126Z,16.50
2022-08-23T22:13:19.107Z,15.93
2022-08-23T22:15:45.973Z,19.65
2022-08-23T22:18:12.795Z,15.65
2022-08-23T22:20:39.814Z,14.50
2022-08-23T22:23:06.673Z,13.63
2022-08-23T22:25:33.460Z,13.65
2022-08-23T22:28:00.496Z,13.73
2022-08-23T22:30:27.375Z,16.58
2022-08-23T22:32:54.244Z,9.55
2022-08-23T22:35:21.060Z,10.17
2022-08-23T22:38:10.204Z,16.23
2022-08-23T22:40:34.949Z,15.88
2022-08-23T22:43:01.828Z,16.58
2022-08-23T22:45:28.617Z,15.10
2022-08-23T22:47:55.792Z,13.57
2022-08-23T22:50:22.591Z,14.57
2022-08-23T22:52:49.535Z,15.77
2022-08-23T22:55:16.434Z,17.05
2022-08-23T22:57:43.524Z,15.02
2022-08-23T23:00:11.324Z,14.97
2022-08-23T23:02:39.015Z,13.20
2022-08-23T23:05:08.092Z,11.93
2022-08-23T23:07:35.014Z,14.20
2022-08-23T23:10:02.055Z,13.60
2022-08-23T23:12:29.140Z,14.50
2022-08-23T23:14:56.058Z,12.02
2022-08-23T23:17:23.051Z,14.27
2022-08-23T23:19:49.988Z,15.40
2022-08-23T23:22:16.874Z,11.93
2022-08-23T23:24:43.798Z,14.27
2022-08-23T23:27:10.659Z,12.10
2022-08-23T23:29:37.576Z,14.18
2022-08-23T23:32:04.844Z,10.30
2022-08-23T23:34:31.714Z,13.25
2022-08-23T23:36:59.336Z,16.10
2022-08-23T23:39:27.633Z,16.58
2022-08-23T23:41:55.333Z,15.10
2022-08-23T23:44:31.192Z,16.98
2022-08-23T23:46:59.646Z,13.68
2022-08-23T23:49:32.591Z,14.60
2022-08-23T23:52:01.180Z,14.68
2022-08-23T23:54:28.045Z,14.32
2022-08-23T23:56:55.002Z,15.32
2022-08-23T23:59:21.979Z,11.98
